createdAt,value
2022-08-27T00:01:59.836Z,19.38
2022-08-27T00:04:30.804Z,19.34
2022-08-27T00:07:03.323Z,19.28
2022-08-27T00:09:32.309Z,19.24
2022-08-27T00:12:01.191Z,19.25
2022-08-27T00:14:31.373Z,19.26
2022-08-27T00:17:03.062Z,19.21
2022-08-27T00:19:43.102Z,19.19
2022-08-27T00:22:15.200Z,19.20
2022-08-27T00:24:48.986Z,19.20
2022-08-27T00:27:19.238Z,19.19
2022-08-27T00:29:50.368Z,19.20
2022-08-27T00:32:21.626Z,19.25
2022-08-27T00:35:12.442Z,19.26
2022-08-27T00:37:44.303Z,19.26
2022-08-27T00:40:16.633Z,19.25
2022-08-27T00:42:49.712Z,19.26
2022-08-27T00:45:22.164Z,19.27
2022-08-27T00:47:55.321Z,19.26
2022-08-27T00:50:32.312Z,19.24
2022-08-27T00:53:06.398Z,19.21
2022-08-27T00:55:38.869Z,19.23
2022-08-27T00:58:16.071Z,19.19
2022-08-27T01:00:47.761Z,19.18
2022-08-27T01:03:19.380Z,19.15
2022-08-27T01:05:50.683Z,19.13
2022-08-27T01:08:26.663Z,19.11
2022-08-27T01:10:58.294Z,19.10
2022-08-27T01:13:59.361Z,19.09
2022-08-27T01:16:23.566Z,19.07
2022-08-27T01:18:53.762Z,19.03
2022-08-27T01:21:28.682Z,19.02
2022-08-27T01:24:07.597Z,18.98
2022-08-27T01:26:37.723Z,18.98
2022-08-27T01:29:09.945Z,18.98
2022-08-27T01:31:39.705Z,18.97
2022-08-27T01:34:08.843Z,18.97
2022-08-27T01:36:37.253Z,18.98
2022-08-27T01:39:07.236Z,18.99
2022-08-27T01:41:37.538Z,18.99
2022-08-27T01:44:06.181Z,19.03
2022-08-27T01:46:34.838Z,19.01
2022-08-27T01:49:03.697Z,19.02
2022-08-27T01:51:33.089Z,19.03
2022-08-27T01:54:01.599Z,19.06
2022-08-27T01:56:31.006Z,19.05
2022-08-27T01:59:01.606Z,19.02
2022-08-27T02:01:30.611Z,19.04
2022-08-27T02:03:59.682Z,19.02
2022-08-27T02:06:28.726Z,18.98
2022-08-27T02:08:57.285Z,18.97
2022-08-27T02:11:25.773Z,18.90
2022-08-27T02:13:55.485Z,18.83
2022-08-27T02:16:27.950Z,18.73
2022-08-27T02:18:57.531Z,18.71
2022-08-27T02:21:26.299Z,18.66
2022-08-27T02:23:57.934Z,18.64
2022-08-27T02:26:27.955Z,18.62
2022-08-27T02:28:57.113Z,18.61
2022-08-27T02:31:28.751Z,18.62
2022-08-27T02:33:59.987Z,18.62
2022-08-27T02:36:28.413Z,18.60
2022-08-27T02:38:57.024Z,18.56
2022-08-27T02:41:25.753Z,18.54
2022-08-27T02:43:54.133Z,18.52
2022-08-27T02:46:22.575Z,18.52
2022-08-27T02:48:54.076Z,18.55
2022-08-27T02:51:22.812Z,18.53
2022-08-27T02:53:52.458Z,18.53
2022-08-27T02:56:23.176Z,18.52
2022-08-27T02:58:51.674Z,18.53
2022-08-27T03:01:20.093Z,18.51
2022-08-27T03:03:50.849Z,18.48
2022-08-27T03:06:22.232Z,18.51
2022-08-27T03:08:52.897Z,18.45
2022-08-27T03:11:23.691Z,18.38
2022-08-27T03:13:53.478Z,18.31
2022-08-27T03:16:23.070Z,18.27
2022-08-27T03:18:54.676Z,18.26
2022-08-27T03:21:26.612Z,18.26
2022-08-27T03:23:55.368Z,18.27
2022-08-27T03:26:24.466Z,18.24
2022-08-27T03:28:53.093Z,18.22
2022-08-27T03:31:27.406Z,18.20
2022-08-27T03:33:57.858Z,18.17
2022-08-27T03:36:32.011Z,18.14
2022-08-27T03:39:02.527Z,18.11
2022-08-27T03:41:53.948Z,18.13
2022-08-27T03:44:21.526Z,18.16
2022-08-27T03:46:51.502Z,18.21
2022-08-27T03:49:21.319Z,18.25
2022-08-27T03:51:53.154Z,18.25
2022-08-27T03:54:21.891Z,18.30
2022-08-27T03:56:51.447Z,18.30
2022-08-27T03:59:20.257Z,18.34
2022-08-27T04:01:48.534Z,18.35
2022-08-27T04:04:17.155Z,18.34
2022-08-27T04:06:45.843Z,18.31
2022-08-27T04:09:15.652Z,18.32
2022-08-27T04:11:47.306Z,18.26
2022-08-27T04:14:26.284Z,18.30
2022-08-27T04:16:56.569Z,18.34
2022-08-27T04:19:27.546Z,18.35
2022-08-27T04:22:01.610Z,18.34
2022-08-27T04:24:33.587Z,18.32
2022-08-27T04:27:03.595Z,18.26
2022-08-27T04:29:32.521Z,18.22
2022-08-27T04:32:01.300Z,18.18
2022-08-27T04:34:30.362Z,18.09
2022-08-27T04:36:59.196Z,18.05
2022-08-27T04:39:28.755Z,18.06
2022-08-27T04:42:01.225Z,18.02
2022-08-27T04:44:34.908Z,18.01
2022-08-27T04:47:06.388Z,18.02
2022-08-27T04:49:35.274Z,17.99
2022-08-27T04:52:04.411Z,17.94
2022-08-27T04:54:35.960Z,17.90
2022-08-27T04:57:07.706Z,17.88
2022-08-27T04:59:37.041Z,17.83
2022-08-27T05:02:09.383Z,17.80
2022-08-27T05:04:40.373Z,17.78
2022-08-27T05:07:10.442Z,17.74
2022-08-27T05:09:39.525Z,17.72
2022-08-27T05:12:11.557Z,17.72
2022-08-27T05:14:39.708Z,17.66
2022-08-27T05:17:08.059Z,17.64
2022-08-27T05:19:36.443Z,17.61
2022-08-27T05:22:04.879Z,17.62
2022-08-27T05:24:34.584Z,17.62
2022-08-27T05:27:03.188Z,17.66
2022-08-27T05:29:36.072Z,17.69
2022-08-27T05:32:07.811Z,17.72
2022-08-27T05:34:36.001Z,17.77
2022-08-27T05:37:04.596Z,17.73
2022-08-27T05:39:32.913Z,17.77
2022-08-27T05:42:01.572Z,17.79
2022-08-27T05:44:45.015Z,17.80
2022-08-27T05:47:14.671Z,17.82
2022-08-27T05:49:42.771Z,17.79
2022-08-27T05:52:11.994Z,17.74
2022-08-27T05:54:44.103Z,17.68
2022-08-27T05:57:13.077Z,17.63
2022-08-27T06:00:02.794Z,17.59
2022-08-27T06:02:37.359Z,17.53
2022-08-27T06:05:06.718Z,17.50
2022-08-27T06:07:36.353Z,17.54
2022-08-27T06:10:07.703Z,17.58
2022-08-27T06:12:37.014Z,17.62
2022-08-27T06:15:06.156Z,17.73
2022-08-27T06:17:35.828Z,17.82
2022-08-27T06:20:04.600Z,17.87
2022-08-27T06:22:33.859Z,17.96
2022-08-27T06:25:02.194Z,18.01
2022-08-27T06:27:33.627Z,18.05
2022-08-27T06:30:02.556Z,18.10
2022-08-27T06:32:32.621Z,18.16
2022-08-27T06:35:02.385Z,18.23
2022-08-27T06:37:31.202Z,18.26
2022-08-27T06:39:59.631Z,18.36
2022-08-27T06:42:36.018Z,18.39
2022-08-27T06:45:06.777Z,18.41
2022-08-27T06:47:36.852Z,18.47
2022-08-27T06:50:07.890Z,18.52
2022-08-27T06:52:36.180Z,18.58
2022-08-27T06:55:08.047Z,18.65
2022-08-27T06:57:38.706Z,18.74
2022-08-27T07:00:08.883Z,18.78
2022-08-27T07:02:49.810Z,18.90
2022-08-27T07:05:20.887Z,18.95
2022-08-27T07:07:49.299Z,19.02
2022-08-27T07:10:17.686Z,19.10
2022-08-27T07:12:45.867Z,19.16
2022-08-27T07:15:14.750Z,19.20
2022-08-27T07:17:44.876Z,19.28
2022-08-27T07:20:14.505Z,19.38
2022-08-27T07:23:02.309Z,19.41
2022-08-27T07:25:33.351Z,19.51
2022-08-27T07:28:01.600Z,19.61
2022-08-27T07:30:30.221Z,19.67
2022-08-27T07:32:58.742Z,19.78
2022-08-27T07:35:27.096Z,19.85
2022-08-27T07:37:55.241Z,19.95
2022-08-27T07:40:25.817Z,20.02
2022-08-27T07:43:07.901Z,20.09
2022-08-27T07:45:36.960Z,20.20
2022-08-27T07:48:05.329Z,20.29
2022-08-27T07:50:35.251Z,20.34
2022-08-27T07:53:04.793Z,20.46
2022-08-27T07:55:37.484Z,20.51
2022-08-27T07:58:06.684Z,20.57
2022-08-27T08:00:39.431Z,20.68
2022-08-27T08:03:07.574Z,20.69
2022-08-27T08:05:35.979Z,20.79
2022-08-27T08:08:05.131Z,20.85
2022-08-27T08:10:37.237Z,20.94
2022-08-27T08:13:07.578Z,21.05
2022-08-27T08:15:36.299Z,21.07
2022-08-27T08:18:07.961Z,21.15
2022-08-27T08:20:56.978Z,21.24
2022-08-27T08:23:24.864Z,21.34
2022-08-27T08:25:55.640Z,21.41
2022-08-27T08:28:24.212Z,21.47
2022-08-27T08:30:53.746Z,21.49
2022-08-27T08:33:23.722Z,21.62
2022-08-27T08:35:53.084Z,21.63
2022-08-27T08:38:23.466Z,21.68
2022-08-27T08:40:55.552Z,21.73
2022-08-27T08:43:31.852Z,21.74
2022-08-27T08:46:08.807Z,21.77
2022-08-27T08:48:39.222Z,21.91
2022-08-27T08:51:21.171Z,21.94
2022-08-27T08:53:55.275Z,22.03
2022-08-27T08:56:42.348Z,22.05
2022-08-27T08:59:19.329Z,22.23
2022-08-27T09:01:51.663Z,22.28
2022-08-27T09:04:20.264Z,22.35
2022-08-27T09:06:57.350Z,22.42
2022-08-27T09:09:34.167Z,22.53
2022-08-27T09:12:10.507Z,22.62
2022-08-27T09:14:46.178Z,22.72
2022-08-27T09:17:17.498Z,22.75
2022-08-27T09:19:48.029Z,22.85
2022-08-27T09:22:35.315Z,22.96
2022-08-27T09:25:10.590Z,23.07
2022-08-27T09:27:44.411Z,23.16
2022-08-27T09:30:20.949Z,23.19
2022-08-27T09:33:00.758Z,23.26
2022-08-27T09:35:38.807Z,23.35
2022-08-27T09:38:08.124Z,23.45
2022-08-27T09:40:43.643Z,23.56
2022-08-27T09:43:24.720Z,23.66
2022-08-27T09:45:56.860Z,23.81
2022-08-27T09:48:28.409Z,23.82
2022-08-27T09:50:59.912Z,23.96
2022-08-27T09:53:33.697Z,24.11
2022-08-27T09:56:03.857Z,24.29
2022-08-27T09:58:51.898Z,24.36
2022-08-27T10:01:31.508Z,24.49
2022-08-27T10:04:13.070Z,24.56
2022-08-27T10:06:48.590Z,24.69
2022-08-27T10:09:24.043Z,24.82
2022-08-27T10:12:01.996Z,24.92
2022-08-27T10:14:42.215Z,24.99
2022-08-27T10:17:19.239Z,25.08
2022-08-27T10:20:05.390Z,25.21
2022-08-27T10:22:48.657Z,25.28
2022-08-27T10:25:31.517Z,25.38
2022-08-27T10:28:12.534Z,25.42
2022-08-27T10:31:05.662Z,25.37
2022-08-27T10:33:54.207Z,25.40
2022-08-27T10:36:41.484Z,25.33
2022-08-27T10:39:22.833Z,25.25
2022-08-27T10:42:09.527Z,25.22
2022-08-27T10:44:56.731Z,25.14
2022-08-27T10:47:48.458Z,25.14
2022-08-27T10:50:27.482Z,25.14
2022-08-27T10:53:16.975Z,25.20
2022-08-27T10:55:52.683Z,25.24
2022-08-27T10:58:37.583Z,25.27
2022-08-27T11:01:14.676Z,25.31
2022-08-27T11:03:50.102Z,25.35
2022-08-27T11:09:45.017Z,25.53
2022-08-27T11:12:19.757Z,25.62
2022-08-27T11:14:55.745Z,25.60
2022-08-27T11:17:32.663Z,25.60
2022-08-27T11:20:07.634Z,25.65
2022-08-27T11:22:42.853Z,25.75
2022-08-27T11:25:28.644Z,25.75
2022-08-27T11:27:59.803Z,25.80
2022-08-27T11:30:41.610Z,25.79
2022-08-27T11:33:20.675Z,25.81
2022-08-27T11:39:17.187Z,25.69
2022-08-27T11:42:11.675Z,25.81
2022-08-27T11:44:46.976Z,26.00
2022-08-27T11:47:24.210Z,26.22
2022-08-27T11:49:56.437Z,26.47
2022-08-27T11:52:32.674Z,26.74
2022-08-27T11:55:27.689Z,27.13
2022-08-27T11:58:09.256Z,27.46
2022-08-27T12:00:40.292Z,27.66
2022-08-27T12:03:13.322Z,27.73
2022-08-27T12:05:45.371Z,27.74
2022-08-27T12:11:33.353Z,27.67
2022-08-27T12:14:12.546Z,27.60
2022-08-27T12:16:50.792Z,27.58
2022-08-27T12:19:44.920Z,27.50
2022-08-27T12:23:04.531Z,27.48
2022-08-27T12:25:34.554Z,27.41
2022-08-27T12:28:12.247Z,27.35
2022-08-27T12:31:06.909Z,27.21
2022-08-27T12:33:54.947Z,27.15
2022-08-27T12:36:28.790Z,27.16
2022-08-27T12:39:00.026Z,27.20
2022-08-27T12:41:44.084Z,27.21
2022-08-27T12:44:16.930Z,27.32
2022-08-27T12:46:51.134Z,27.38
2022-08-27T12:52:23.335Z,27.49
2022-08-27T12:55:09.943Z,27.54
2022-08-27T12:58:04.434Z,27.60
2022-08-27T13:00:45.346Z,27.65
2022-08-27T13:03:26.799Z,27.74
2022-08-27T13:05:57.731Z,27.86
2022-08-27T13:08:45.159Z,28.02
2022-08-27T13:11:27.370Z,28.24
2022-08-27T13:14:11.974Z,28.41
2022-08-27T13:16:47.250Z,28.56
2022-08-27T13:19:29.429Z,28.49
2022-08-27T13:22:00.268Z,28.54
2022-08-27T13:24:53.430Z,28.64
2022-08-27T13:27:47.059Z,28.48
2022-08-27T13:30:35.641Z,28.55
2022-08-27T13:33:10.465Z,28.70
2022-08-27T13:35:43.969Z,28.77
2022-08-27T13:38:12.897Z,28.95
2022-08-27T13:41:18.095Z,29.16
2022-08-27T13:43:49.708Z,29.56
2022-08-27T13:46:49.666Z,29.92
2022-08-27T13:49:28.090Z,30.45
2022-08-27T13:52:17.688Z,30.96
2022-08-27T13:54:47.278Z,31.43
2022-08-27T13:57:26.712Z,31.70
2022-08-27T14:00:08.389Z,31.96
2022-08-27T14:02:36.831Z,32.12
2022-08-27T14:05:14.386Z,32.27
2022-08-27T14:07:52.917Z,32.61
2022-08-27T14:13:44.022Z,33.19
2022-08-27T14:19:36.932Z,33.73
2022-08-27T14:22:21.948Z,33.77
2022-08-27T14:24:54.193Z,33.68
2022-08-27T14:27:25.543Z,33.55
2022-08-27T14:29:55.740Z,33.54
2022-08-27T14:32:41.953Z,33.62
2022-08-27T14:35:30.752Z,33.59
2022-08-27T14:38:03.820Z,33.56
2022-08-27T14:40:37.672Z,33.65
2022-08-27T14:43:10.961Z,33.75
2022-08-27T14:45:41.687Z,33.94
2022-08-27T14:48:18.523Z,34.11
2022-08-27T14:51:11.086Z,34.12
2022-08-27T14:53:49.012Z,34.04
2022-08-27T14:56:20.918Z,33.94
2022-08-27T14:58:49.647Z,33.93
2022-08-27T15:01:32.484Z,34.03
2022-08-27T15:04:03.244Z,34.45
2022-08-27T15:06:32.399Z,34.90
2022-08-27T15:09:02.242Z,35.26
2022-08-27T15:11:36.757Z,35.47
2022-08-27T15:14:19.210Z,35.67
2022-08-27T15:16:48.996Z,35.65
2022-08-27T15:19:17.813Z,35.61
2022-08-27T15:21:48.596Z,35.59
2022-08-27T15:24:20.718Z,35.60
2022-08-27T15:27:06.394Z,35.61
2022-08-27T15:29:49.888Z,35.69
2022-08-27T15:32:57.538Z,35.75
2022-08-27T15:46:46.899Z,34.90
2022-08-27T15:49:21.985Z,34.66
2022-08-27T15:52:02.785Z,34.42
2022-08-27T15:57:42.503Z,33.65
2022-08-27T16:00:38.637Z,33.40
2022-08-27T16:03:35.465Z,33.26
2022-08-27T16:06:05.389Z,33.07
2022-08-27T16:11:52.127Z,32.90
2022-08-27T16:14:21.986Z,32.89
2022-08-27T16:16:51.035Z,32.90
2022-08-27T16:19:20.728Z,32.67
2022-08-27T16:21:51.163Z,32.43
2022-08-27T16:24:23.501Z,32.27
2022-08-27T16:26:56.661Z,32.27
2022-08-27T16:29:28.518Z,32.25
2022-08-27T16:32:19.445Z,32.45
2022-08-27T16:34:56.121Z,32.77
2022-08-27T16:37:25.912Z,33.06
2022-08-27T16:39:57.411Z,33.33
2022-08-27T16:42:27.267Z,33.59
2022-08-27T16:45:06.562Z,33.82
2022-08-27T16:47:57.489Z,34.02
2022-08-27T16:50:34.015Z,34.33
2022-08-27T16:53:04.378Z,34.50
2022-08-27T16:55:35.276Z,34.61
2022-08-27T16:58:29.198Z,34.67
2022-08-27T17:01:03.765Z,34.74
2022-08-27T17:03:44.102Z,34.70
2022-08-27T17:06:23.787Z,34.45
2022-08-27T17:08:57.661Z,34.28
2022-08-27T17:11:28.991Z,34.18
2022-08-27T17:14:02.461Z,34.00
2022-08-27T17:16:43.649Z,33.71
2022-08-27T17:19:16.241Z,33.55
2022-08-27T17:21:50.817Z,33.59
2022-08-27T17:24:19.277Z,33.72
2022-08-27T17:26:47.623Z,33.80
2022-08-27T17:29:19.362Z,33.74
2022-08-27T17:31:49.050Z,33.58
2022-08-27T17:34:24.190Z,33.26
2022-08-27T17:39:37.185Z,32.87
2022-08-27T17:42:12.233Z,32.47
2022-08-27T17:44:45.441Z,31.97
2022-08-27T17:47:14.347Z,31.67
2022-08-27T17:49:43.854Z,31.58
2022-08-27T17:52:19.257Z,31.48
2022-08-27T17:54:51.255Z,31.48
2022-08-27T17:57:22.592Z,31.35
2022-08-27T17:59:53.783Z,31.29
2022-08-27T18:02:28.285Z,31.18
2022-08-27T18:04:56.738Z,31.20
2022-08-27T18:07:25.288Z,31.06
2022-08-27T18:09:54.657Z,30.79
2022-08-27T18:12:26.209Z,30.48
2022-08-27T18:15:14.508Z,30.18
2022-08-27T18:20:29.552Z,29.61
2022-08-27T18:22:58.192Z,29.48
2022-08-27T18:25:33.847Z,29.44
2022-08-27T18:28:07.583Z,29.37
2022-08-27T18:30:41.074Z,29.30
2022-08-27T18:33:09.687Z,29.22
2022-08-27T18:35:39.123Z,29.09
2022-08-27T18:38:08.200Z,28.80
2022-08-27T18:40:40.828Z,28.42
2022-08-27T18:43:09.129Z,28.14
2022-08-27T18:45:39.616Z,27.77
2022-08-27T18:48:15.154Z,27.44
2022-08-27T18:50:47.293Z,27.06
2022-08-27T18:53:18.499Z,26.82
2022-08-27T18:55:46.899Z,26.56
2022-08-27T18:58:15.585Z,26.35
2022-08-27T19:00:48.900Z,26.06
2022-08-27T19:03:22.053Z,25.91
2022-08-27T19:05:55.082Z,25.68
2022-08-27T19:08:24.929Z,25.51
2022-08-27T19:10:56.888Z,25.41
2022-08-27T19:13:27.720Z,25.23
2022-08-27T19:16:00.567Z,25.08
2022-08-27T19:18:32.384Z,24.93
2022-08-27T19:21:01.113Z,24.83
2022-08-27T19:23:29.609Z,24.61
2022-08-27T19:26:00.070Z,24.54
2022-08-27T19:28:33.216Z,24.45
2022-08-27T19:31:02.889Z,24.31
2022-08-27T19:33:31.548Z,24.23
2022-08-27T19:36:02.282Z,24.12
2022-08-27T19:38:33.391Z,24.08
2022-08-27T19:41:01.748Z,24.05
2022-08-27T19:43:30.020Z,23.99
2022-08-27T19:46:00.502Z,23.88
2022-08-27T19:48:30.363Z,23.80
2022-08-27T19:50:59.466Z,23.70
2022-08-27T19:53:27.902Z,23.67
2022-08-27T19:55:56.352Z,23.67
2022-08-27T19:58:24.563Z,23.68
2022-08-27T20:00:53.192Z,23.72
2022-08-27T20:03:21.649Z,23.70
2022-08-27T20:05:54.675Z,23.72
2022-08-27T20:08:22.943Z,23.78
2022-08-27T20:10:51.408Z,23.78
2022-08-27T20:13:23.148Z,23.74
2022-08-27T20:15:52.010Z,23.77
2022-08-27T20:18:22.281Z,23.76
2022-08-27T20:20:50.433Z,23.72
2022-08-27T20:23:20.171Z,23.68
2022-08-27T20:25:50.821Z,23.70
2022-08-27T20:28:38.298Z,23.69
2022-08-27T20:31:08.320Z,23.62
2022-08-27T20:33:36.629Z,23.59
2022-08-27T20:36:05.483Z,23.58
2022-08-27T20:38:35.998Z,23.50
2022-08-27T20:41:04.742Z,23.56
2022-08-27T20:43:32.985Z,23.52
2022-08-27T20:46:02.452Z,23.54
2022-08-27T20:48:30.791Z,23.49
2022-08-27T20:50:59.016Z,23.50
2022-08-27T20:53:27.246Z,23.42
2022-08-27T20:55:57.013Z,23.36
2022-08-27T20:58:43.218Z,23.36
2022-08-27T21:01:12.540Z,23.30
2022-08-27T21:03:41.929Z,23.25
2022-08-27T21:06:10.288Z,23.22
2022-08-27T21:08:39.021Z,23.19
2022-08-27T21:11:12.793Z,23.15
2022-08-27T21:13:55.136Z,23.09
2022-08-27T21:16:29.872Z,23.06
2022-08-27T21:18:58.092Z,23.04
2022-08-27T21:21:26.354Z,22.99
2022-08-27T21:23:54.710Z,22.95
2022-08-27T21:26:26.269Z,22.92
2022-08-27T21:28:59.261Z,22.86
2022-08-27T21:31:29.494Z,22.84
2022-08-27T21:34:00.439Z,22.80
2022-08-27T21:36:28.774Z,22.81
2022-08-27T21:38:57.347Z,22.77
2022-08-27T21:41:27.515Z,22.77
2022-08-27T21:44:04.353Z,22.77
2022-08-27T21:46:34.864Z,22.77
2022-08-27T21:49:03.823Z,22.79
2022-08-27T21:51:34.622Z,22.77
2022-08-27T21:54:03.001Z,22.79
2022-08-27T21:56:35.317Z,22.76
2022-08-27T21:59:03.652Z,22.76
2022-08-27T22:01:34.625Z,22.76
2022-08-27T22:04:03.177Z,22.79
2022-08-27T22:06:31.556Z,22.78
2022-08-27T22:08:59.803Z,22.76
2022-08-27T22:11:30.581Z,22.74
2022-08-27T22:14:01.369Z,22.71
2022-08-27T22:16:30.253Z,22.66
2022-08-27T22:18:58.582Z,22.64
2022-08-27T22:21:28.479Z,22.62
2022-08-27T22:23:57.111Z,22.60
2022-08-27T22:26:25.549Z,22.53
2022-08-27T22:28:54.034Z,22.56
2022-08-27T22:31:27.235Z,22.52
2022-08-27T22:33:55.631Z,22.51
2022-08-27T22:36:24.432Z,22.49
2022-08-27T22:38:52.934Z,22.50
2022-08-27T22:41:22.187Z,22.47
2022-08-27T22:43:50.947Z,22.46
2022-08-27T22:46:26.664Z,22.44
2022-08-27T22:48:55.111Z,22.40
2022-08-27T22:51:23.863Z,22.38
2022-08-27T22:53:52.155Z,22.34
2022-08-27T22:56:21.864Z,22.36
2022-08-27T22:58:50.229Z,22.41
2022-08-27T23:01:20.316Z,22.45
2022-08-27T23:03:52.602Z,22.47
2022-08-27T23:06:20.831Z,22.48
2022-08-27T23:08:49.220Z,22.48
2022-08-27T23:11:17.880Z,22.46
2022-08-27T23:13:47.267Z,22.48
2022-08-27T23:16:17.028Z,22.44
2022-08-27T23:18:45.865Z,22.39
2022-08-27T23:21:15.950Z,22.38
2022-08-27T23:23:44.613Z,22.28
2022-08-27T23:26:30.306Z,22.23
2022-08-27T23:28:58.701Z,22.06
2022-08-27T23:31:28.080Z,22.02
2022-08-27T23:33:57.453Z,21.94
2022-08-27T23:36:29.392Z,21.88
2022-08-27T23:38:58.485Z,21.82
2022-08-27T23:41:29.356Z,21.81
2022-08-27T23:43:58.966Z,21.76
2022-08-27T23:46:27.172Z,21.74
2022-08-27T23:48:56.250Z,21.67
2022-08-27T23:51:25.426Z,21.70
2022-08-27T23:53:55.007Z,21.72
2022-08-27T23:56:30.010Z,21.69
2022-08-27T23:58:59.911Z,21.67
